Overview Statistics Trail Chart Weather Telemetry Raw packets
 

This is the latest recevied weather packets stored in our database for station/object DN9EM-3. If no packets are shown the sender has not sent any weather packets the latest 10 day(s).

<< 14 15 16 17 18 19 20 >>
Time Temp. Humidity Pressure Rain* Wind** Luminosity Snow
1788343817 21.11° C 64% 1020.1 hPa 0 mm - - -
1788343274 22.22° C 61% 1020.2 hPa 0 mm - - -
1788342672 22.78° C 61% 1020.3 hPa 0 mm - - -
1788342069 22.78° C 60% 1020.3 hPa 0 mm - - -
1788341481 22.22° C 61% 1020.2 hPa 0 mm - - -
1788340864 21.67° C 62% 1020.3 hPa 0 mm - - -
1788340262 21.67° C 62% 1020.3 hPa 0 mm - - -
1788339659 21.67° C 63% 1020.3 hPa 0 mm - - -
1788339056 20° C 68% 1020.4 hPa 0 mm - - -
1788338454 18.89° C 73% 1020.3 hPa 0 mm - - -
1788337851 18.33° C 74% 1020.2 hPa 0 mm - - -
1788337249 18.89° C 73% 1020.3 hPa 0 mm - - -
1788336646 18.33° C 75% 1020.3 hPa 0 mm - - -
1788336044 17.22° C 77% 1020.3 hPa 0 mm - - -
1788335441 16.67° C 80% 1020.3 hPa 0 mm - - -
1788334838 16.11° C 82% 1020.1 hPa 0 mm - - -
1788334236 16.11° C 81% 1020.3 hPa 0 mm - - -
1788333633 16.11° C 81% 1020.2 hPa 0 mm - - -
1788333031 16.67° C 80% 1020.1 hPa 0 mm - - -
1788332429 15° C 86% 1020.1 hPa 0 mm - - -
1788331826 14.44° C 88% 1020.3 hPa 0 mm - - -
1788331223 13.89° C 89% 1020.3 hPa 0 mm - - -
1788330620 13.89° C 90% 1020.2 hPa 0 mm - - -
1788330018 13.33° C 91% 1020.2 hPa 0 mm - - -
1788329415 13.33° C 92% 1020.2 hPa 0 mm - - -

* Rain latest hour (hover to see other rain measurements)
** Current wind speed in m/s (hover to see current wind gust speed)